sensor_id;sensor_type;location;lat;lon;timestamp;pressure;altitude;pressure_sealevel;temperature;humidity
73341;BME280;61578;52.002;5.468;2022-07-29T00:00:18;101686.50;;;17.78;56.82
73341;BME280;61578;52.002;5.468;2022-07-29T00:01:14;101653.06;;;17.60;57.22
73341;BME280;61578;52.002;5.468;2022-07-29T00:02:06;101681.25;;;17.77;57.03
73341;BME280;61578;52.002;5.468;2022-07-29T00:02:57;101688.47;;;17.76;57.19
73341;BME280;61578;52.002;5.468;2022-07-29T00:03:48;101644.03;;;17.50;57.57
73341;BME280;61578;52.002;5.468;2022-07-29T00:04:39;101672.00;;;17.70;57.17
73341;BME280;61578;52.002;5.468;2022-07-29T00:05:30;101664.41;;;17.63;57.97
73341;BME280;61578;52.002;5.468;2022-07-29T00:06:21;101678.81;;;17.74;57.25
73341;BME280;61578;52.002;5.468;2022-07-29T00:07:12;101665.28;;;17.64;57.61
73341;BME280;61578;52.002;5.468;2022-07-29T00:08:03;101672.59;;;17.73;57.20
73341;BME280;61578;52.002;5.468;2022-07-29T00:08:54;101667.34;;;17.72;57.87
73341;BME280;61578;52.002;5.468;2022-07-29T00:09:45;101679.66;;;17.74;57.47
73341;BME280;61578;52.002;5.468;2022-07-29T00:10:36;101662.34;;;17.67;57.49
73341;BME280;61578;52.002;5.468;2022-07-29T00:11:28;101662.13;;;17.70;57.16
73341;BME280;61578;52.002;5.468;2022-07-29T00:12:21;101667.59;;;17.69;57.74
73341;BME280;61578;52.002;5.468;2022-07-29T00:13:14;101631.31;;;17.52;57.64
73341;BME280;61578;52.002;5.468;2022-07-29T00:14:06;101649.75;;;17.56;57.60
73341;BME280;61578;52.002;5.468;2022-07-29T00:14:57;101658.06;;;17.64;58.11
73341;BME280;61578;52.002;5.468;2022-07-29T00:15:48;101646.84;;;17.59;57.53
73341;BME280;61578;52.002;5.468;2022-07-29T00:16:39;101645.25;;;17.57;57.44
73341;BME280;61578;52.002;5.468;2022-07-29T00:17:30;101658.28;;;17.61;58.07
73341;BME280;61578;52.002;5.468;2022-07-29T00:18:21;101653.91;;;17.60;57.66
73341;BME280;61578;52.002;5.468;2022-07-29T00:19:13;101646.47;;;17.64;58.03
73341;BME280;61578;52.002;5.468;2022-07-29T00:20:04;101655.28;;;17.66;57.90
73341;BME280;61578;52.002;5.468;2022-07-29T00:20:56;101652.81;;;17.63;57.94
73341;BME280;61578;52.002;5.468;2022-07-29T00:21:47;101621.44;;;17.41;57.40
73341;BME280;61578;52.002;5.468;2022-07-29T00:22:38;101648.78;;;17.57;57.88
73341;BME280;61578;52.002;5.468;2022-07-29T00:23:30;101657.56;;;17.59;57.79
73341;BME280;61578;52.002;5.468;2022-07-29T00:24:21;101633.53;;;17.47;57.62
73341;BME280;61578;52.002;5.468;2022-07-29T00:25:12;101662.22;;;17.57;57.99
73341;BME280;61578;52.002;5.468;2022-07-29T00:26:03;101652.56;;;17.55;58.33
73341;BME280;61578;52.002;5.468;2022-07-29T00:26:56;101651.81;;;17.53;57.64
73341;BME280;61578;52.002;5.468;2022-07-29T00:27:47;101654.50;;;17.53;58.70
73341;BME280;61578;52.002;5.468;2022-07-29T00:28:38;101657.06;;;17.54;58.22
73341;BME280;61578;52.002;5.468;2022-07-29T00:29:29;101633.88;;;17.42;58.45
73341;BME280;61578;52.002;5.468;2022-07-29T00:30:20;101616.34;;;17.27;58.51
73341;BME280;61578;52.002;5.468;2022-07-29T00:31:11;101649.41;;;17.50;58.35
73341;BME280;61578;52.002;5.468;2022-07-29T00:32:02;101641.81;;;17.44;58.46
73341;BME280;61578;52.002;5.468;2022-07-29T00:32:53;101650.13;;;17.52;58.47
73341;BME280;61578;52.002;5.468;2022-07-29T00:33:44;101640.84;;;17.45;58.45
73341;BME280;61578;52.002;5.468;2022-07-29T00:34:35;101651.34;;;17.48;58.25
73341;BME280;61578;52.002;5.468;2022-07-29T00:35:44;101641.94;;;17.42;58.58
73341;BME280;61578;52.002;5.468;2022-07-29T00:36:35;101642.69;;;17.44;58.52
73341;BME280;61578;52.002;5.468;2022-07-29T00:37:26;101626.56;;;17.33;59.15
73341;BME280;61578;52.002;5.468;2022-07-29T00:38:19;101637.81;;;17.38;58.95
73341;BME280;61578;52.002;5.468;2022-07-29T00:39:10;101639.75;;;17.36;59.34
73341;BME280;61578;52.002;5.468;2022-07-29T00:40:01;101634.50;;;17.35;58.42
73341;BME280;61578;52.002;5.468;2022-07-29T00:40:54;101639.88;;;17.35;58.63
73341;BME280;61578;52.002;5.468;2022-07-29T00:41:45;101633.78;;;17.33;59.36
73341;BME280;61578;52.002;5.468;2022-07-29T00:42:51;101631.94;;;17.33;58.97
73341;BME280;61578;52.002;5.468;2022-07-29T00:43:43;101633.88;;;17.31;59.45
73341;BME280;61578;52.002;5.468;2022-07-29T00:44:38;101619.13;;;17.25;58.90
73341;BME280;61578;52.002;5.468;2022-07-29T00:45:30;101633.88;;;17.31;59.37
73341;BME280;61578;52.002;5.468;2022-07-29T00:46:21;101632.69;;;17.24;59.47
73341;BME280;61578;52.002;5.468;2022-07-29T00:47:12;101611.19;;;17.13;59.50
73341;BME280;61578;52.002;5.468;2022-07-29T00:48:03;101632.69;;;17.24;60.02
73341;BME280;61578;52.002;5.468;2022-07-29T00:48:55;101610.34;;;17.12;59.42
73341;BME280;61578;52.002;5.468;2022-07-29T00:49:46;101626.69;;;17.20;59.94
73341;BME280;61578;52.002;5.468;2022-07-29T00:50:38;101613.75;;;17.14;59.59
73341;BME280;61578;52.002;5.468;2022-07-29T00:51:30;101611.72;;;17.18;59.63
73341;BME280;61578;52.002;5.468;2022-07-29T00:52:22;101623.88;;;17.22;59.37
73341;BME280;61578;52.002;5.468;2022-07-29T00:53:13;101614.63;;;17.15;59.65
73341;BME280;61578;52.002;5.468;2022-07-29T00:54:05;101625.00;;;17.19;59.49
73341;BME280;61578;52.002;5.468;2022-07-29T00:54:56;101632.19;;;17.19;59.69
73341;BME280;61578;52.002;5.468;2022-07-29T00:55:47;101606.91;;;17.10;59.78
73341;BME280;61578;52.002;5.468;2022-07-29T00:56:38;101611.31;;;17.11;59.61
73341;BME280;61578;52.002;5.468;2022-07-29T00:57:29;101610.47;;;17.00;59.42
73341;BME280;61578;52.002;5.468;2022-07-29T00:58:21;101603.16;;;17.02;59.32
73341;BME280;61578;52.002;5.468;2022-07-29T00:59:12;101613.53;;;17.06;59.59
73341;BME280;61578;52.002;5.468;2022-07-29T01:00:06;101599.13;;;16.96;59.58
73341;BME280;61578;52.002;5.468;2022-07-29T01:00:59;101615.25;;;17.07;59.96
73341;BME280;61578;52.002;5.468;2022-07-29T01:01:50;101606.56;;;17.04;60.41
73341;BME280;61578;52.002;5.468;2022-07-29T01:02:41;101617.19;;;17.05;59.77
73341;BME280;61578;52.002;5.468;2022-07-29T01:03:32;101592.28;;;16.92;60.34
73341;BME280;61578;52.002;5.468;2022-07-29T01:04:23;101608.63;;;17.00;60.71
73341;BME280;61578;52.002;5.468;2022-07-29T01:05:18;101620.59;;;17.07;60.30
73341;BME280;61578;52.002;5.468;2022-07-29T01:06:11;101615.25;;;17.07;60.24
73341;BME280;61578;52.002;5.468;2022-07-29T01:07:03;101624.25;;;17.06;60.49
73341;BME280;61578;52.002;5.468;2022-07-29T01:07:57;101621.56;;;17.06;60.28
73341;BME280;61578;52.002;5.468;2022-07-29T01:08:51;101614.50;;;17.05;59.74
73341;BME280;61578;52.002;5.468;2022-07-29T01:09:44;101624.25;;;17.06;60.34
73341;BME280;61578;52.002;5.468;2022-07-29T01:10:38;101612.91;;;17.03;59.93
73341;BME280;61578;52.002;5.468;2022-07-29T01:11:32;101616.09;;;16.97;60.06
73341;BME280;61578;52.002;5.468;2022-07-29T01:12:26;101616.81;;;16.99;60.07
73341;BME280;61578;52.002;5.468;2022-07-29T01:13:20;101617.91;;;16.96;59.83
73341;BME280;61578;52.002;5.468;2022-07-29T01:14:12;101619.13;;;17.03;60.16
73341;BME280;61578;52.002;5.468;2022-07-29T01:15:06;101625.47;;;17.02;59.76
73341;BME280;61578;52.002;5.468;2022-07-29T01:16:25;101623.91;;;17.00;59.87
73341;BME280;61578;52.002;5.468;2022-07-29T01:17:36;101613.84;;;16.90;60.42
73341;BME280;61578;52.002;5.468;2022-07-29T01:18:52;101620.94;;;17.03;60.30
73341;BME280;61578;52.002;5.468;2022-07-29T01:21:59;101602.28;;;16.90;60.53
73341;BME280;61578;52.002;5.468;2022-07-29T01:26:02;101605.69;;;16.92;60.88
73341;BME280;61578;52.002;5.468;2022-07-29T01:27:38;101585.56;;;16.75;60.83
73341;BME280;61578;52.002;5.468;2022-07-29T01:30:22;101611.56;;;16.86;60.38
73341;BME280;61578;52.002;5.468;2022-07-29T01:31:24;101586.03;;;16.69;61.10
73341;BME280;61578;52.002;5.468;2022-07-29T01:32:26;101603.25;;;16.78;60.92
73341;BME280;61578;52.002;5.468;2022-07-29T01:33:23;101611.03;;;16.81;60.73
73341;BME280;61578;52.002;5.468;2022-07-29T01:35:45;101629.09;;;16.90;60.66
73341;BME280;61578;52.002;5.468;2022-07-29T01:36:43;101630.09;;;16.89;60.91
73341;BME280;61578;52.002;5.468;2022-07-29T01:39:31;101609.47;;;16.78;61.41
73341;BME280;61578;52.002;5.468;2022-07-29T01:40:43;101606.28;;;16.73;60.84
73341;BME280;61578;52.002;5.468;2022-07-29T01:41:48;101620.81;;;16.82;61.07
73341;BME280;61578;52.002;5.468;2022-07-29T01:42:54;101610.56;;;16.76;61.13
73341;BME280;61578;52.002;5.468;2022-07-29T01:43:57;101632.50;;;16.81;60.94
73341;BME280;61578;52.002;5.468;2022-07-29T01:45:09;101624.81;;;16.76;61.63
73341;BME280;61578;52.002;5.468;2022-07-29T01:46:11;101622.03;;;16.78;60.86
73341;BME280;61578;52.002;5.468;2022-07-29T01:47:12;101629.09;;;16.79;61.30
73341;BME280;61578;52.002;5.468;2022-07-29T01:48:16;101636.31;;;16.78;61.42
73341;BME280;61578;52.002;5.468;2022-07-29T01:49:15;101628.38;;;16.77;61.23
73341;BME280;61578;52.002;5.468;2022-07-29T01:50:14;101615.78;;;16.66;61.47
73341;BME280;61578;52.002;5.468;2022-07-29T01:51:16;101637.28;;;16.77;61.37
73341;BME280;61578;52.002;5.468;2022-07-29T01:52:19;101634.59;;;16.77;61.79
73341;BME280;61578;52.002;5.468;2022-07-29T01:53:46;101641.03;;;16.75;61.10
73341;BME280;61578;52.002;5.468;2022-07-29T01:54:57;101634.69;;;16.76;61.08
73341;BME280;61578;52.002;5.468;2022-07-29T01:55:51;101622.59;;;16.70;61.31
73341;BME280;61578;52.002;5.468;2022-07-29T01:56:48;101632.88;;;16.76;61.36
73341;BME280;61578;52.002;5.468;2022-07-29T01:57:46;101632.25;;;16.73;61.72
73341;BME280;61578;52.002;5.468;2022-07-29T01:58:41;101634.06;;;16.72;61.42
73341;BME280;61578;52.002;5.468;2022-07-29T01:59:37;101630.53;;;16.72;61.47
73341;BME280;61578;52.002;5.468;2022-07-29T02:00:32;101632.03;;;16.76;62.11
73341;BME280;61578;52.002;5.468;2022-07-29T02:01:27;101637.00;;;16.80;61.59
73341;BME280;61578;52.002;5.468;2022-07-29T02:02:24;101638.84;;;16.80;61.59
73341;BME280;61578;52.002;5.468;2022-07-29T02:03:19;101643.22;;;16.81;61.29
73341;BME280;61578;52.002;5.468;2022-07-29T02:04:14;101632.03;;;16.76;61.77
73341;BME280;61578;52.002;5.468;2022-07-29T02:05:11;101637.75;;;16.82;61.27
73341;BME280;61578;52.002;5.468;2022-07-29T02:06:07;101638.59;;;16.83;61.67
73341;BME280;61578;52.002;5.468;2022-07-29T02:07:05;101641.41;;;16.81;61.43
73341;BME280;61578;52.002;5.468;2022-07-29T02:07:59;101638.59;;;16.83;62.46
73341;BME280;61578;52.002;5.468;2022-07-29T02:08:55;101622.38;;;16.73;62.02
73341;BME280;61578;52.002;5.468;2022-07-29T02:09:51;101635.44;;;16.78;61.69
73341;BME280;61578;52.002;5.468;2022-07-29T02:10:45;101635.44;;;16.78;61.63
73341;BME280;61578;52.002;5.468;2022-07-29T02:11:43;101631.28;;;16.74;61.28
73341;BME280;61578;52.002;5.468;2022-07-29T02:12:42;101630.19;;;16.76;61.38
73341;BME280;61578;52.002;5.468;2022-07-29T02:13:37;101628.47;;;16.75;61.34
73341;BME280;61578;52.002;5.468;2022-07-29T02:14:36;101628.59;;;16.74;61.07
73341;BME280;61578;52.002;5.468;2022-07-29T02:15:44;101628.72;;;16.72;61.73
73341;BME280;61578;52.002;5.468;2022-07-29T02:16:39;101624.09;;;16.74;62.62
73341;BME280;61578;52.002;5.468;2022-07-29T02:17:53;101606.44;;;16.59;61.98
73341;BME280;61578;52.002;5.468;2022-07-29T02:18:52;101627.00;;;16.71;61.91
73341;BME280;61578;52.002;5.468;2022-07-29T02:19:47;101619.31;;;16.67;62.02
73341;BME280;61578;52.002;5.468;2022-07-29T02:20:44;101609.69;;;16.64;61.95
73341;BME280;61578;52.002;5.468;2022-07-29T02:21:39;101584.16;;;16.47;62.29
73341;BME280;61578;52.002;5.468;2022-07-29T02:22:33;101633.22;;;16.72;61.62
73341;BME280;61578;52.002;5.468;2022-07-29T02:23:30;101623.47;;;16.71;61.94
73341;BME280;61578;52.002;5.468;2022-07-29T02:24:27;101616.97;;;16.62;61.79
73341;BME280;61578;52.002;5.468;2022-07-29T02:25:21;101611.69;;;16.61;61.52
73341;BME280;61578;52.002;5.468;2022-07-29T02:26:15;101624.56;;;16.68;61.82
73341;BME280;61578;52.002;5.468;2022-07-29T02:27:10;101610.25;;;16.56;61.52
73341;BME280;61578;52.002;5.468;2022-07-29T02:28:05;101614.94;;;16.66;61.94
73341;BME280;61578;52.002;5.468;2022-07-29T02:28:59;101619.31;;;16.67;62.58
73341;BME280;61578;52.002;5.468;2022-07-29T02:29:53;101620.53;;;16.63;62.58
73341;BME280;61578;52.002;5.468;2022-07-29T02:30:47;101608.53;;;16.55;62.58
73341;BME280;61578;52.002;5.468;2022-07-29T02:31:45;101621.25;;;16.65;62.39
73341;BME280;61578;52.002;5.468;2022-07-29T02:32:41;101600.59;;;16.54;62.10
73341;BME280;61578;52.002;5.468;2022-07-29T02:33:35;101620.41;;;16.64;62.22
73341;BME280;61578;52.002;5.468;2022-07-29T02:34:29;101613.44;;;16.62;62.12
73341;BME280;61578;52.002;5.468;2022-07-29T02:35:21;101619.66;;;16.62;61.69
73341;BME280;61578;52.002;5.468;2022-07-29T02:36:15;101611.63;;;16.62;62.18
73341;BME280;61578;52.002;5.468;2022-07-29T02:37:10;101607.13;;;16.63;62.27
73341;BME280;61578;52.002;5.468;2022-07-29T02:38:03;101599.41;;;16.58;63.55
73341;BME280;61578;52.002;5.468;2022-07-29T02:39:15;101605.41;;;16.62;62.31
73341;BME280;61578;52.002;5.468;2022-07-29T02:40:11;101602.72;;;16.62;62.56
73341;BME280;61578;52.002;5.468;2022-07-29T02:41:11;101597.94;;;16.54;62.35
73341;BME280;61578;52.002;5.468;2022-07-29T02:42:10;101590.97;;;16.51;62.28
73341;BME280;61578;52.002;5.468;2022-07-29T02:43:06;101601.09;;;16.59;62.52
73341;BME280;61578;52.002;5.468;2022-07-29T02:44:17;101592.03;;;16.49;62.37
73341;BME280;61578;52.002;5.468;2022-07-29T02:45:10;101578.38;;;16.41;62.69
73341;BME280;61578;52.002;5.468;2022-07-29T02:46:05;101615.72;;;16.55;62.27
73341;BME280;61578;52.002;5.468;2022-07-29T02:47:22;101610.69;;;16.50;61.98
73341;BME280;61578;52.002;5.468;2022-07-29T02:48:26;101609.50;;;16.54;61.76
73341;BME280;61578;52.002;5.468;2022-07-29T02:49:36;101606.81;;;16.54;62.02
73341;BME280;61578;52.002;5.468;2022-07-29T02:50:44;101576.06;;;16.36;62.21
73341;BME280;61578;52.002;5.468;2022-07-29T02:51:46;101614.63;;;16.58;62.39
73341;BME280;61578;52.002;5.468;2022-07-29T02:53:12;101611.31;;;16.54;62.04
73341;BME280;61578;52.002;5.468;2022-07-29T02:54:27;101606.94;;;16.53;62.36
73341;BME280;61578;52.002;5.468;2022-07-29T02:55:41;101608.31;;;16.59;62.82
73341;BME280;61578;52.002;5.468;2022-07-29T02:56:38;101582.41;;;16.35;62.17
73341;BME280;61578;52.002;5.468;2022-07-29T02:57:58;101611.81;;;16.59;62.84
73341;BME280;61578;52.002;5.468;2022-07-29T02:58:59;101611.09;;;16.57;62.65
73341;BME280;61578;52.002;5.468;2022-07-29T02:59:57;101595.72;;;16.48;62.49
73341;BME280;61578;52.002;5.468;2022-07-29T03:01:01;101599.59;;;16.44;62.02
73341;BME280;61578;52.002;5.468;2022-07-29T03:01:55;101581.53;;;16.35;62.37
73341;BME280;61578;52.002;5.468;2022-07-29T03:02:53;101610.69;;;16.50;62.77
73341;BME280;61578;52.002;5.468;2022-07-29T03:03:49;101592.75;;;16.40;62.98
73341;BME280;61578;52.002;5.468;2022-07-29T03:04:43;101605.34;;;16.50;62.55
73341;BME280;61578;52.002;5.468;2022-07-29T03:05:37;101604.75;;;16.47;62.26
73341;BME280;61578;52.002;5.468;2022-07-29T03:06:29;101590.59;;;16.45;62.78
73341;BME280;61578;52.002;5.468;2022-07-29T03:07:22;101591.69;;;16.42;62.74
73341;BME280;61578;52.002;5.468;2022-07-29T03:08:15;101596.59;;;16.48;62.47
73341;BME280;61578;52.002;5.468;2022-07-29T03:09:07;101601.09;;;16.48;62.47
73341;BME280;61578;52.002;5.468;2022-07-29T03:10:02;101587.06;;;16.44;62.71
73341;BME280;61578;52.002;5.468;2022-07-29T03:10:55;101573.41;;;16.36;63.21
73341;BME280;61578;52.002;5.468;2022-07-29T03:11:47;101589.50;;;16.47;62.20
73341;BME280;61578;52.002;5.468;2022-07-29T03:12:40;101584.16;;;16.47;62.15
73341;BME280;61578;52.002;5.468;2022-07-29T03:13:32;101592.91;;;16.49;62.18
73341;BME280;61578;52.002;5.468;2022-07-29T03:14:26;101579.97;;;16.43;62.54
73341;BME280;61578;52.002;5.468;2022-07-29T03:15:18;101586.94;;;16.46;62.24
73341;BME280;61578;52.002;5.468;2022-07-29T03:16:10;101585.22;;;16.45;62.36
73341;BME280;61578;52.002;5.468;2022-07-29T03:17:04;101582.66;;;16.43;62.54
73341;BME280;61578;52.002;5.468;2022-07-29T03:17:56;101579.13;;;16.43;62.64
73341;BME280;61578;52.002;5.468;2022-07-29T03:18:48;101568.25;;;16.33;62.55
73341;BME280;61578;52.002;5.468;2022-07-29T03:19:42;101578.00;;;16.34;62.68
73341;BME280;61578;52.002;5.468;2022-07-29T03:20:33;101580.84;;;16.44;62.52
73341;BME280;61578;52.002;5.468;2022-07-29T03:21:24;101581.06;;;16.41;62.82
73341;BME280;61578;52.002;5.468;2022-07-29T03:22:15;101583.53;;;16.44;62.69
73341;BME280;61578;52.002;5.468;2022-07-29T03:23:08;101586.84;;;16.47;63.03
73341;BME280;61578;52.002;5.468;2022-07-29T03:23:59;101571.69;;;16.35;62.36
73341;BME280;61578;52.002;5.468;2022-07-29T03:24:50;101591.44;;;16.45;61.98
73341;BME280;61578;52.002;5.468;2022-07-29T03:25:43;101576.06;;;16.36;62.58
73341;BME280;61578;52.002;5.468;2022-07-29T03:26:34;101558.25;;;16.24;62.30
73341;BME280;61578;52.002;5.468;2022-07-29T03:27:25;101576.81;;;16.38;62.12
73341;BME280;61578;52.002;5.468;2022-07-29T03:28:16;101556.06;;;16.29;62.63
73341;BME280;61578;52.002;5.468;2022-07-29T03:29:07;101579.97;;;16.43;62.54
73341;BME280;61578;52.002;5.468;2022-07-29T03:29:58;101546.56;;;16.25;62.70
73341;BME280;61578;52.002;5.468;2022-07-29T03:30:49;101570.13;;;16.44;62.54
73341;BME280;61578;52.002;5.468;2022-07-29T03:31:40;101576.22;;;16.46;62.71
73341;BME280;61578;52.002;5.468;2022-07-29T03:32:31;101567.44;;;16.44;62.52
73341;BME280;61578;52.002;5.468;2022-07-29T03:33:22;101570.75;;;16.47;61.96
73341;BME280;61578;52.002;5.468;2022-07-29T03:34:13;101558.88;;;16.39;62.32
73341;BME280;61578;52.002;5.468;2022-07-29T03:35:05;101543.78;;;16.27;62.45
73341;BME280;61578;52.002;5.468;2022-07-29T03:35:57;101568.28;;;16.44;62.29
73341;BME280;61578;52.002;5.468;2022-07-29T03:36:48;101570.22;;;16.42;62.30
73341;BME280;61578;52.002;5.468;2022-07-29T03:37:40;101559.13;;;16.36;62.80
73341;BME280;61578;52.002;5.468;2022-07-29T03:38:34;101556.56;;;16.34;62.25
73341;BME280;61578;52.002;5.468;2022-07-29T03:39:31;101557.06;;;16.39;62.57
73341;BME280;61578;52.002;5.468;2022-07-29T03:40:32;101561.34;;;16.42;62.27
73341;BME280;61578;52.002;5.468;2022-07-29T03:41:33;101561.34;;;16.42;61.96
73341;BME280;61578;52.002;5.468;2022-07-29T03:42:32;101565.09;;;16.39;62.88
73341;BME280;61578;52.002;5.468;2022-07-29T03:43:30;101539.97;;;16.29;62.27
73341;BME280;61578;52.002;5.468;2022-07-29T03:44:26;101554.38;;;16.39;63.16
73341;BME280;61578;52.002;5.468;2022-07-29T03:45:21;101563.03;;;16.43;62.92
73341;BME280;61578;52.002;5.468;2022-07-29T03:46:15;101535.34;;;16.31;62.73
73341;BME280;61578;52.002;5.468;2022-07-29T03:47:10;101562.19;;;16.42;62.40
73341;BME280;61578;52.002;5.468;2022-07-29T03:48:08;101556.09;;;16.40;62.31
73341;BME280;61578;52.002;5.468;2022-07-29T03:49:04;101528.03;;;16.22;62.59
73341;BME280;61578;52.002;5.468;2022-07-29T03:50:11;101551.84;;;16.38;62.45
73341;BME280;61578;52.002;5.468;2022-07-29T03:51:03;101542.44;;;16.32;62.46
73341;BME280;61578;52.002;5.468;2022-07-29T03:51:55;101552.94;;;16.35;62.86
73341;BME280;61578;52.002;5.468;2022-07-29T03:52:46;101560.59;;;16.40;62.72
73341;BME280;61578;52.002;5.468;2022-07-29T03:53:38;101566.81;;;16.40;62.61
73341;BME280;61578;52.002;5.468;2022-07-29T03:54:29;101566.22;;;16.37;62.14
73341;BME280;61578;52.002;5.468;2022-07-29T03:55:20;101556.78;;;16.31;63.22
73341;BME280;61578;52.002;5.468;2022-07-29T03:56:15;101556.31;;;16.26;63.06
73341;BME280;61578;52.002;5.468;2022-07-29T03:57:14;101576.94;;;16.37;63.01
73341;BME280;61578;52.002;5.468;2022-07-29T03:58:07;101568.25;;;16.33;63.23
73341;BME280;61578;52.002;5.468;2022-07-29T03:59:01;101574.13;;;16.38;62.68
73341;BME280;61578;52.002;5.468;2022-07-29T03:59:55;101580.47;;;16.37;62.52
73341;BME280;61578;52.002;5.468;2022-07-29T04:00:48;101584.88;;;16.38;62.87
73341;BME280;61578;52.002;5.468;2022-07-29T04:01:41;101584.00;;;16.38;64.11
73341;BME280;61578;52.002;5.468;2022-07-29T04:02:34;101581.31;;;16.38;63.07
73341;BME280;61578;52.002;5.468;2022-07-29T04:03:26;101582.19;;;16.38;63.13
73341;BME280;61578;52.002;5.468;2022-07-29T04:04:17;101572.03;;;16.31;62.81
73341;BME280;61578;52.002;5.468;2022-07-29T04:05:12;101582.41;;;16.35;62.85
73341;BME280;61578;52.002;5.468;2022-07-29T04:06:05;101586.78;;;16.36;62.72
73341;BME280;61578;52.002;5.468;2022-07-29T04:06:57;101577.91;;;16.36;63.64
73341;BME280;61578;52.002;5.468;2022-07-29T04:07:48;101573.63;;;16.33;63.85
73341;BME280;61578;52.002;5.468;2022-07-29T04:08:39;101573.50;;;16.35;63.54
73341;BME280;61578;52.002;5.468;2022-07-29T04:09:30;101580.47;;;16.37;62.69
73341;BME280;61578;52.002;5.468;2022-07-29T04:10:22;101582.50;;;16.34;63.04
73341;BME280;61578;52.002;5.468;2022-07-29T04:11:13;101566.78;;;16.29;64.14
73341;BME280;61578;52.002;5.468;2022-07-29T04:12:05;101577.91;;;16.36;63.14
73341;BME280;61578;52.002;5.468;2022-07-29T04:12:56;101560.69;;;16.27;63.09
73341;BME280;61578;52.002;5.468;2022-07-29T04:13:47;101584.97;;;16.37;62.39
73341;BME280;61578;52.002;5.468;2022-07-29T04:14:38;101571.91;;;16.32;62.32
73341;BME280;61578;52.002;5.468;2022-07-29T04:15:29;101583.38;;;16.34;62.77
73341;BME280;61578;52.002;5.468;2022-07-29T04:16:20;101578.97;;;16.33;62.49
73341;BME280;61578;52.002;5.468;2022-07-29T04:17:11;101573.63;;;16.33;63.16
73341;BME280;61578;52.002;5.468;2022-07-29T04:18:02;101560.69;;;16.27;62.79
73341;BME280;61578;52.002;5.468;2022-07-29T04:18:53;101573.00;;;16.30;63.10
73341;BME280;61578;52.002;5.468;2022-07-29T04:19:44;101554.34;;;16.17;63.12
73341;BME280;61578;52.002;5.468;2022-07-29T04:20:35;101564.09;;;16.29;63.45
73341;BME280;61578;52.002;5.468;2022-07-29T04:21:26;101562.41;;;16.28;62.92
73341;BME280;61578;52.002;5.468;2022-07-29T04:22:17;101563.25;;;16.29;63.28
73341;BME280;61578;52.002;5.468;2022-07-29T04:23:08;101564.09;;;16.29;62.78
73341;BME280;61578;52.002;5.468;2022-07-29T04:23:59;101557.06;;;16.28;62.66
73341;BME280;61578;52.002;5.468;2022-07-29T04:24:50;101557.06;;;16.28;62.58
73341;BME280;61578;52.002;5.468;2022-07-29T04:25:42;101549.00;;;16.28;62.80
73341;BME280;61578;52.002;5.468;2022-07-29T04:26:34;101549.97;;;16.27;63.33
73341;BME280;61578;52.002;5.468;2022-07-29T04:27:25;101549.72;;;16.30;62.72
73341;BME280;61578;52.002;5.468;2022-07-29T04:28:16;101549.72;;;16.30;62.93
73341;BME280;61578;52.002;5.468;2022-07-29T04:29:07;101547.03;;;16.30;63.24
73341;BME280;61578;52.002;5.468;2022-07-29T04:29:58;101536.91;;;16.23;62.78
73341;BME280;61578;52.002;5.468;2022-07-29T04:30:50;101546.34;;;16.28;62.72
73341;BME280;61578;52.002;5.468;2022-07-29T04:31:41;101544.38;;;16.30;62.58
73341;BME280;61578;52.002;5.468;2022-07-29T04:32:33;101519.00;;;16.12;62.43
73341;BME280;61578;52.002;5.468;2022-07-29T04:33:24;101548.75;;;16.31;62.18
73341;BME280;61578;52.002;5.468;2022-07-29T04:34:15;101551.31;;;16.33;62.38
73341;BME280;61578;52.002;5.468;2022-07-29T04:35:06;101548.88;;;16.30;62.51
73341;BME280;61578;52.002;5.468;2022-07-29T04:35:59;101544.25;;;16.32;62.35
73341;BME280;61578;52.002;5.468;2022-07-29T04:36:50;101558.28;;;16.35;62.85
73341;BME280;61578;52.002;5.468;2022-07-29T04:37:40;101540.34;;;16.25;62.31
73341;BME280;61578;52.002;5.468;2022-07-29T04:38:31;101556.91;;;16.30;61.98
73341;BME280;61578;52.002;5.468;2022-07-29T04:39:23;101551.44;;;16.31;61.62
73341;BME280;61578;52.002;5.468;2022-07-29T04:40:14;101558.88;;;16.28;61.71
73341;BME280;61578;52.002;5.468;2022-07-29T04:41:06;101565.09;;;16.28;61.73
73341;BME280;61578;52.002;5.468;2022-07-29T04:41:57;101571.16;;;16.30;61.76
73341;BME280;61578;52.002;5.468;2022-07-29T04:42:48;101562.16;;;16.31;62.30
73341;BME280;61578;52.002;5.468;2022-07-29T04:43:39;101568.38;;;16.32;62.10
73341;BME280;61578;52.002;5.468;2022-07-29T04:44:30;101570.94;;;16.33;61.90
73341;BME280;61578;52.002;5.468;2022-07-29T04:45:21;101565.59;;;16.33;61.99
73341;BME280;61578;52.002;5.468;2022-07-29T04:46:12;101572.53;;;16.36;61.91
73341;BME280;61578;52.002;5.468;2022-07-29T04:47:03;101577.91;;;16.36;62.01
73341;BME280;61578;52.002;5.468;2022-07-29T04:47:55;101567.28;;;16.34;62.21
73341;BME280;61578;52.002;5.468;2022-07-29T04:48:46;101563.88;;;16.32;62.26
73341;BME280;61578;52.002;5.468;2022-07-29T04:49:38;101574.13;;;16.38;62.51
73341;BME280;61578;52.002;5.468;2022-07-29T04:50:29;101549.00;;;16.28;62.18
73341;BME280;61578;52.002;5.468;2022-07-29T04:51:20;101570.13;;;16.44;61.87
73341;BME280;61578;52.002;5.468;2022-07-29T04:52:11;101569.25;;;16.43;62.07
73341;BME280;61578;52.002;5.468;2022-07-29T04:53:04;101567.44;;;16.44;62.14
73341;BME280;61578;52.002;5.468;2022-07-29T04:53:55;101579.75;;;16.46;62.00
73341;BME280;61578;52.002;5.468;2022-07-29T04:54:46;101572.56;;;16.47;61.78
73341;BME280;61578;52.002;5.468;2022-07-29T04:55:37;101551.84;;;16.38;61.63
73341;BME280;61578;52.002;5.468;2022-07-29T04:56:27;101572.56;;;16.47;62.18
73341;BME280;61578;52.002;5.468;2022-07-29T04:57:18;101564.41;;;16.48;61.54